sensor_id;sensor_type;location;lat;lon;timestamp;temperature;humidity
14614;DHT22;7393;51.446;6.800;2023-06-04T00:00:15;15.30;1.00
14614;DHT22;7393;51.446;6.800;2023-06-04T00:02:41;15.20;1.00
14614;DHT22;7393;51.446;6.800;2023-06-04T00:05:09;15.20;1.00
14614;DHT22;7393;51.446;6.800;2023-06-04T00:07:36;15.10;1.00
14614;DHT22;7393;51.446;6.800;2023-06-04T00:10:06;15.00;1.00
14614;DHT22;7393;51.446;6.800;2023-06-04T00:12:33;14.90;1.00
14614;DHT22;7393;51.446;6.800;2023-06-04T00:15:00;14.90;1.00
14614;DHT22;7393;51.446;6.800;2023-06-04T00:17:26;14.80;1.00
14614;DHT22;7393;51.446;6.800;2023-06-04T00:19:53;14.80;1.00
14614;DHT22;7393;51.446;6.800;2023-06-04T00:22:20;14.70;1.00
14614;DHT22;7393;51.446;6.800;2023-06-04T00:24:47;14.70;1.00
14614;DHT22;7393;51.446;6.800;2023-06-04T00:27:15;14.70;1.00
14614;DHT22;7393;51.446;6.800;2023-06-04T00:29:43;14.60;1.00
14614;DHT22;7393;51.446;6.800;2023-06-04T00:32:09;14.50;1.00
14614;DHT22;7393;51.446;6.800;2023-06-04T00:34:36;14.50;1.00
14614;DHT22;7393;51.446;6.800;2023-06-04T00:37:03;14.50;1.00
14614;DHT22;7393;51.446;6.800;2023-06-04T00:39:30;14.40;1.00
14614;DHT22;7393;51.446;6.800;2023-06-04T00:41:57;14.40;1.00
14614;DHT22;7393;51.446;6.800;2023-06-04T00:44:25;14.30;1.00
14614;DHT22;7393;51.446;6.800;2023-06-04T00:46:52;14.20;1.00
14614;DHT22;7393;51.446;6.800;2023-06-04T00:49:20;14.20;1.00
14614;DHT22;7393;51.446;6.800;2023-06-04T00:51:47;14.20;1.00
14614;DHT22;7393;51.446;6.800;2023-06-04T00:54:14;14.10;1.00
14614;DHT22;7393;51.446;6.800;2023-06-04T00:56:43;14.00;1.00
14614;DHT22;7393;51.446;6.800;2023-06-04T00:59:10;14.00;1.00
14614;DHT22;7393;51.446;6.800;2023-06-04T01:01:42;13.90;1.00
14614;DHT22;7393;51.446;6.800;2023-06-04T01:04:16;13.90;1.00
14614;DHT22;7393;51.446;6.800;2023-06-04T01:06:49;13.80;1.00
14614;DHT22;7393;51.446;6.800;2023-06-04T01:09:16;13.80;1.00
14614;DHT22;7393;51.446;6.800;2023-06-04T01:11:44;13.70;1.00
14614;DHT22;7393;51.446;6.800;2023-06-04T01:14:11;13.70;1.00
14614;DHT22;7393;51.446;6.800;2023-06-04T01:16:47;13.60;1.00
14614;DHT22;7393;51.446;6.800;2023-06-04T01:19:49;13.60;1.00
14614;DHT22;7393;51.446;6.800;2023-06-04T01:22:36;13.50;1.00
14614;DHT22;7393;51.446;6.800;2023-06-04T01:25:09;13.50;1.00
14614;DHT22;7393;51.446;6.800;2023-06-04T01:27:46;13.40;1.00
14614;DHT22;7393;51.446;6.800;2023-06-04T01:30:14;13.40;1.00
14614;DHT22;7393;51.446;6.800;2023-06-04T01:32:43;13.30;1.00
14614;DHT22;7393;51.446;6.800;2023-06-04T01:35:12;13.30;1.00
14614;DHT22;7393;51.446;6.800;2023-06-04T01:37:38;13.30;1.00
14614;DHT22;7393;51.446;6.800;2023-06-04T01:40:07;13.30;1.00
14614;DHT22;7393;51.446;6.800;2023-06-04T01:42:34;13.30;1.00
14614;DHT22;7393;51.446;6.800;2023-06-04T01:45:01;13.40;1.00
14614;DHT22;7393;51.446;6.800;2023-06-04T01:47:28;13.30;1.00
14614;DHT22;7393;51.446;6.800;2023-06-04T01:49:56;13.40;1.00
14614;DHT22;7393;51.446;6.800;2023-06-04T01:52:23;13.40;1.00
14614;DHT22;7393;51.446;6.800;2023-06-04T01:54:50;13.30;1.00
14614;DHT22;7393;51.446;6.800;2023-06-04T01:57:18;13.40;1.00
14614;DHT22;7393;51.446;6.800;2023-06-04T01:59:45;13.40;1.00
14614;DHT22;7393;51.446;6.800;2023-06-04T02:02:12;13.40;1.00
14614;DHT22;7393;51.446;6.800;2023-06-04T02:04:39;13.40;1.00
14614;DHT22;7393;51.446;6.800;2023-06-04T02:07:08;13.40;1.00
14614;DHT22;7393;51.446;6.800;2023-06-04T02:09:35;13.40;1.00
14614;DHT22;7393;51.446;6.800;2023-06-04T02:12:03;13.40;1.00
14614;DHT22;7393;51.446;6.800;2023-06-04T02:14:30;13.40;1.00
14614;DHT22;7393;51.446;6.800;2023-06-04T02:16:57;13.40;1.00
14614;DHT22;7393;51.446;6.800;2023-06-04T02:19:24;13.30;1.00
14614;DHT22;7393;51.446;6.800;2023-06-04T02:21:52;13.30;1.00
14614;DHT22;7393;51.446;6.800;2023-06-04T02:24:20;13.30;1.00
14614;DHT22;7393;51.446;6.800;2023-06-04T02:26:47;13.20;1.00
14614;DHT22;7393;51.446;6.800;2023-06-04T02:29:14;13.20;1.00
14614;DHT22;7393;51.446;6.800;2023-06-04T02:31:40;13.20;1.00
14614;DHT22;7393;51.446;6.800;2023-06-04T02:34:07;13.20;1.00
14614;DHT22;7393;51.446;6.800;2023-06-04T02:36:34;13.20;1.00
14614;DHT22;7393;51.446;6.800;2023-06-04T02:39:01;13.10;1.00
14614;DHT22;7393;51.446;6.800;2023-06-04T02:41:29;13.10;1.00
14614;DHT22;7393;51.446;6.800;2023-06-04T02:43:56;13.10;1.00
14614;DHT22;7393;51.446;6.800;2023-06-04T02:46:23;13.10;1.00
14614;DHT22;7393;51.446;6.800;2023-06-04T02:48:51;13.10;1.00
14614;DHT22;7393;51.446;6.800;2023-06-04T02:51:18;13.00;1.00
14614;DHT22;7393;51.446;6.800;2023-06-04T02:53:45;13.00;1.00
14614;DHT22;7393;51.446;6.800;2023-06-04T02:56:11;13.00;1.00
14614;DHT22;7393;51.446;6.800;2023-06-04T02:58:49;13.00;1.00
14614;DHT22;7393;51.446;6.800;2023-06-04T03:01:20;13.00;1.00
14614;DHT22;7393;51.446;6.800;2023-06-04T03:03:47;13.00;1.00
14614;DHT22;7393;51.446;6.800;2023-06-04T03:06:15;12.90;1.00
14614;DHT22;7393;51.446;6.800;2023-06-04T03:08:42;12.90;1.00
14614;DHT22;7393;51.446;6.800;2023-06-04T03:11:10;12.90;1.00
14614;DHT22;7393;51.446;6.800;2023-06-04T03:13:38;12.90;1.00
14614;DHT22;7393;51.446;6.800;2023-06-04T03:16:06;12.80;1.00
14614;DHT22;7393;51.446;6.800;2023-06-04T03:18:35;12.80;1.00
14614;DHT22;7393;51.446;6.800;2023-06-04T03:21:03;12.80;1.00
14614;DHT22;7393;51.446;6.800;2023-06-04T03:23:30;12.70;1.00
14614;DHT22;7393;51.446;6.800;2023-06-04T03:25:57;12.70;1.00
14614;DHT22;7393;51.446;6.800;2023-06-04T03:28:24;12.60;1.00
14614;DHT22;7393;51.446;6.800;2023-06-04T03:30:50;12.50;1.00
14614;DHT22;7393;51.446;6.800;2023-06-04T03:33:19;12.50;1.00
14614;DHT22;7393;51.446;6.800;2023-06-04T03:35:46;12.50;1.00
14614;DHT22;7393;51.446;6.800;2023-06-04T03:38:13;12.40;1.00
14614;DHT22;7393;51.446;6.800;2023-06-04T03:40:40;12.40;1.00
14614;DHT22;7393;51.446;6.800;2023-06-04T03:43:07;12.40;1.00
14614;DHT22;7393;51.446;6.800;2023-06-04T03:45:34;12.40;1.00
14614;DHT22;7393;51.446;6.800;2023-06-04T03:48:01;12.30;1.00
14614;DHT22;7393;51.446;6.800;2023-06-04T03:50:29;12.30;1.00
14614;DHT22;7393;51.446;6.800;2023-06-04T03:52:56;12.30;1.00
14614;DHT22;7393;51.446;6.800;2023-06-04T03:55:23;12.30;1.00
14614;DHT22;7393;51.446;6.800;2023-06-04T03:57:50;12.30;1.00
14614;DHT22;7393;51.446;6.800;2023-06-04T04:00:18;12.30;1.00
14614;DHT22;7393;51.446;6.800;2023-06-04T04:02:45;12.30;1.00
14614;DHT22;7393;51.446;6.800;2023-06-04T04:05:12;12.40;1.00
14614;DHT22;7393;51.446;6.800;2023-06-04T04:07:42;12.40;1.00
14614;DHT22;7393;51.446;6.800;2023-06-04T04:10:09;12.40;1.00
14614;DHT22;7393;51.446;6.800;2023-06-04T04:12:36;12.40;1.00
14614;DHT22;7393;51.446;6.800;2023-06-04T04:15:04;12.40;1.00
14614;DHT22;7393;51.446;6.800;2023-06-04T04:17:31;12.50;1.00
14614;DHT22;7393;51.446;6.800;2023-06-04T04:19:58;12.50;1.00
14614;DHT22;7393;51.446;6.800;2023-06-04T04:22:24;12.60;1.00
14614;DHT22;7393;51.446;6.800;2023-06-04T04:24:52;12.60;1.00
14614;DHT22;7393;51.446;6.800;2023-06-04T04:27:19;12.60;1.00
14614;DHT22;7393;51.446;6.800;2023-06-04T04:29:46;12.60;1.00
14614;DHT22;7393;51.446;6.800;2023-06-04T04:32:13;12.70;1.00
14614;DHT22;7393;51.446;6.800;2023-06-04T04:34:51;12.80;1.00
14614;DHT22;7393;51.446;6.800;2023-06-04T04:37:20;12.80;1.00
14614;DHT22;7393;51.446;6.800;2023-06-04T04:39:48;12.90;1.00
14614;DHT22;7393;51.446;6.800;2023-06-04T04:42:18;12.90;1.00
14614;DHT22;7393;51.446;6.800;2023-06-04T04:44:45;13.00;1.00
14614;DHT22;7393;51.446;6.800;2023-06-04T04:47:14;13.00;1.00
14614;DHT22;7393;51.446;6.800;2023-06-04T04:49:41;13.10;1.00
14614;DHT22;7393;51.446;6.800;2023-06-04T04:52:08;13.20;1.00
14614;DHT22;7393;51.446;6.800;2023-06-04T04:54:35;13.30;1.00
14614;DHT22;7393;51.446;6.800;2023-06-04T04:57:02;13.30;1.00
14614;DHT22;7393;51.446;6.800;2023-06-04T04:59:30;13.40;1.00
14614;DHT22;7393;51.446;6.800;2023-06-04T05:01:56;13.50;1.00
14614;DHT22;7393;51.446;6.800;2023-06-04T05:04:23;13.50;1.00
14614;DHT22;7393;51.446;6.800;2023-06-04T05:06:50;13.60;1.00
14614;DHT22;7393;51.446;6.800;2023-06-04T05:09:17;13.60;1.00
14614;DHT22;7393;51.446;6.800;2023-06-04T05:11:44;13.70;1.00
14614;DHT22;7393;51.446;6.800;2023-06-04T05:14:11;13.80;1.00
14614;DHT22;7393;51.446;6.800;2023-06-04T05:16:39;13.90;1.00
14614;DHT22;7393;51.446;6.800;2023-06-04T05:19:06;14.00;1.00
14614;DHT22;7393;51.446;6.800;2023-06-04T05:21:34;14.10;1.00
14614;DHT22;7393;51.446;6.800;2023-06-04T05:24:02;14.20;1.00
14614;DHT22;7393;51.446;6.800;2023-06-04T05:26:29;14.30;1.00
14614;DHT22;7393;51.446;6.800;2023-06-04T05:28:56;14.40;1.00
14614;DHT22;7393;51.446;6.800;2023-06-04T05:31:23;14.50;1.00
14614;DHT22;7393;51.446;6.800;2023-06-04T05:33:53;14.50;1.00
14614;DHT22;7393;51.446;6.800;2023-06-04T05:36:20;14.60;1.00
14614;DHT22;7393;51.446;6.800;2023-06-04T05:38:47;14.70;1.00
14614;DHT22;7393;51.446;6.800;2023-06-04T05:41:14;14.80;1.00
14614;DHT22;7393;51.446;6.800;2023-06-04T05:43:40;14.90;1.00
14614;DHT22;7393;51.446;6.800;2023-06-04T05:46:09;15.00;1.00
14614;DHT22;7393;51.446;6.800;2023-06-04T05:48:36;15.10;1.00
14614;DHT22;7393;51.446;6.800;2023-06-04T05:51:04;15.20;1.00
14614;DHT22;7393;51.446;6.800;2023-06-04T05:53:33;15.30;1.00
14614;DHT22;7393;51.446;6.800;2023-06-04T05:56:00;15.40;1.00
14614;DHT22;7393;51.446;6.800;2023-06-04T05:58:26;15.50;1.00
14614;DHT22;7393;51.446;6.800;2023-06-04T06:00:53;15.50;1.00
14614;DHT22;7393;51.446;6.800;2023-06-04T06:03:22;15.50;1.00
14614;DHT22;7393;51.446;6.800;2023-06-04T06:05:49;15.50;1.00
14614;DHT22;7393;51.446;6.800;2023-06-04T06:08:17;15.60;1.00
14614;DHT22;7393;51.446;6.800;2023-06-04T06:10:44;15.60;1.00
14614;DHT22;7393;51.446;6.800;2023-06-04T06:13:10;15.50;1.00
14614;DHT22;7393;51.446;6.800;2023-06-04T06:15:37;15.50;1.00
14614;DHT22;7393;51.446;6.800;2023-06-04T06:18:04;15.60;1.00
14614;DHT22;7393;51.446;6.800;2023-06-04T06:20:32;15.60;1.00
14614;DHT22;7393;51.446;6.800;2023-06-04T06:23:05;15.60;1.00
14614;DHT22;7393;51.446;6.800;2023-06-04T06:25:34;15.60;1.00
14614;DHT22;7393;51.446;6.800;2023-06-04T06:28:00;15.70;1.00
14614;DHT22;7393;51.446;6.800;2023-06-04T06:30:27;15.60;1.00
14614;DHT22;7393;51.446;6.800;2023-06-04T06:32:54;15.70;1.00
14614;DHT22;7393;51.446;6.800;2023-06-04T06:35:21;15.70;1.00
14614;DHT22;7393;51.446;6.800;2023-06-04T06:37:48;15.70;1.00
14614;DHT22;7393;51.446;6.800;2023-06-04T06:40:15;15.70;1.00
14614;DHT22;7393;51.446;6.800;2023-06-04T06:42:48;15.80;1.00
14614;DHT22;7393;51.446;6.800;2023-06-04T06:45:15;15.80;1.00
14614;DHT22;7393;51.446;6.800;2023-06-04T06:47:42;15.80;1.00
14614;DHT22;7393;51.446;6.800;2023-06-04T06:50:09;15.90;1.00
14614;DHT22;7393;51.446;6.800;2023-06-04T06:52:36;15.90;1.00
14614;DHT22;7393;51.446;6.800;2023-06-04T06:55:03;16.00;1.00
14614;DHT22;7393;51.446;6.800;2023-06-04T06:57:30;16.10;1.00
14614;DHT22;7393;51.446;6.800;2023-06-04T07:00:00;16.20;1.00
14614;DHT22;7393;51.446;6.800;2023-06-04T07:02:27;16.20;1.00
14614;DHT22;7393;51.446;6.800;2023-06-04T07:04:54;16.30;1.00
14614;DHT22;7393;51.446;6.800;2023-06-04T07:07:21;16.30;1.00
14614;DHT22;7393;51.446;6.800;2023-06-04T07:09:48;16.40;1.00
14614;DHT22;7393;51.446;6.800;2023-06-04T07:12:14;16.50;1.00
14614;DHT22;7393;51.446;6.800;2023-06-04T07:14:42;16.60;1.00
14614;DHT22;7393;51.446;6.800;2023-06-04T07:17:10;16.60;1.00
14614;DHT22;7393;51.446;6.800;2023-06-04T07:19:37;16.70;1.00
14614;DHT22;7393;51.446;6.800;2023-06-04T07:22:04;16.70;1.00
14614;DHT22;7393;51.446;6.800;2023-06-04T07:24:31;16.80;1.00
14614;DHT22;7393;51.446;6.800;2023-06-04T07:26:57;17.00;1.00
14614;DHT22;7393;51.446;6.800;2023-06-04T07:29:24;17.10;1.00
14614;DHT22;7393;51.446;6.800;2023-06-04T07:31:51;17.20;1.00
14614;DHT22;7393;51.446;6.800;2023-06-04T07:34:19;17.30;1.00
14614;DHT22;7393;51.446;6.800;2023-06-04T07:36:47;17.50;1.00
14614;DHT22;7393;51.446;6.800;2023-06-04T07:39:14;17.70;1.00
14614;DHT22;7393;51.446;6.800;2023-06-04T07:41:40;17.90;1.00
14614;DHT22;7393;51.446;6.800;2023-06-04T07:44:07;18.10;1.00
14614;DHT22;7393;51.446;6.800;2023-06-04T07:46:34;18.20;1.00
14614;DHT22;7393;51.446;6.800;2023-06-04T07:49:01;18.40;1.00
14614;DHT22;7393;51.446;6.800;2023-06-04T07:51:29;18.50;1.00
14614;DHT22;7393;51.446;6.800;2023-06-04T07:53:56;18.60;1.00
14614;DHT22;7393;51.446;6.800;2023-06-04T07:56:23;18.80;1.00
14614;DHT22;7393;51.446;6.800;2023-06-04T07:58:51;18.90;1.00
14614;DHT22;7393;51.446;6.800;2023-06-04T08:01:17;19.10;1.00
14614;DHT22;7393;51.446;6.800;2023-06-04T08:03:45;19.30;1.00
14614;DHT22;7393;51.446;6.800;2023-06-04T08:06:12;19.40;1.00
14614;DHT22;7393;51.446;6.800;2023-06-04T08:08:43;19.60;1.00
14614;DHT22;7393;51.446;6.800;2023-06-04T08:11:11;19.80;1.00
14614;DHT22;7393;51.446;6.800;2023-06-04T08:13:39;19.90;1.00
14614;DHT22;7393;51.446;6.800;2023-06-04T08:16:06;20.00;1.00
14614;DHT22;7393;51.446;6.800;2023-06-04T08:18:33;20.10;1.00
14614;DHT22;7393;51.446;6.800;2023-06-04T08:21:00;20.30;1.00
14614;DHT22;7393;51.446;6.800;2023-06-04T08:23:27;20.40;1.00
14614;DHT22;7393;51.446;6.800;2023-06-04T08:25:55;20.60;1.00
14614;DHT22;7393;51.446;6.800;2023-06-04T08:28:22;20.70;1.00
14614;DHT22;7393;51.446;6.800;2023-06-04T08:30:49;20.80;1.00
14614;DHT22;7393;51.446;6.800;2023-06-04T08:33:15;20.90;1.00
14614;DHT22;7393;51.446;6.800;2023-06-04T08:35:42;21.10;1.00
14614;DHT22;7393;51.446;6.800;2023-06-04T08:38:09;21.20;1.00
14614;DHT22;7393;51.446;6.800;2023-06-04T08:40:36;21.30;1.00
14614;DHT22;7393;51.446;6.800;2023-06-04T08:43:04;21.40;1.00
14614;DHT22;7393;51.446;6.800;2023-06-04T08:45:33;21.60;1.00
14614;DHT22;7393;51.446;6.800;2023-06-04T08:48:00;21.70;1.00
14614;DHT22;7393;51.446;6.800;2023-06-04T08:50:27;21.80;1.00
14614;DHT22;7393;51.446;6.800;2023-06-04T08:52:55;21.80;1.00
14614;DHT22;7393;51.446;6.800;2023-06-04T08:55:22;21.80;1.00
14614;DHT22;7393;51.446;6.800;2023-06-04T08:57:50;21.90;1.00
14614;DHT22;7393;51.446;6.800;2023-06-04T09:00:19;22.00;1.00
14614;DHT22;7393;51.446;6.800;2023-06-04T09:02:49;22.10;1.00
14614;DHT22;7393;51.446;6.800;2023-06-04T09:05:20;22.20;1.00
14614;DHT22;7393;51.446;6.800;2023-06-04T09:07:48;22.30;1.00
14614;DHT22;7393;51.446;6.800;2023-06-04T09:10:18;22.20;1.00
14614;DHT22;7393;51.446;6.800;2023-06-04T09:12:47;22.30;1.00
14614;DHT22;7393;51.446;6.800;2023-06-04T09:15:15;22.50;1.00
14614;DHT22;7393;51.446;6.800;2023-06-04T09:17:43;22.60;1.00
14614;DHT22;7393;51.446;6.800;2023-06-04T09:20:18;22.70;1.00
14614;DHT22;7393;51.446;6.800;2023-06-04T09:22:48;22.80;1.00
14614;DHT22;7393;51.446;6.800;2023-06-04T09:25:21;22.90;1.00
14614;DHT22;7393;51.446;6.800;2023-06-04T09:27:50;23.00;1.00
14614;DHT22;7393;51.446;6.800;2023-06-04T09:30:17;23.10;1.00
14614;DHT22;7393;51.446;6.800;2023-06-04T09:32:45;23.20;1.00
14614;DHT22;7393;51.446;6.800;2023-06-04T09:35:13;23.30;1.00
14614;DHT22;7393;51.446;6.800;2023-06-04T09:37:41;23.40;1.00
14614;DHT22;7393;51.446;6.800;2023-06-04T09:40:09;23.40;1.00
14614;DHT22;7393;51.446;6.800;2023-06-04T09:42:43;23.60;1.00
14614;DHT22;7393;51.446;6.800;2023-06-04T09:45:10;23.70;1.00
14614;DHT22;7393;51.446;6.800;2023-06-04T09:47:41;23.80;1.00
14614;DHT22;7393;51.446;6.800;2023-06-04T09:50:11;23.90;1.00
14614;DHT22;7393;51.446;6.800;2023-06-04T09:52:38;23.90;1.00
14614;DHT22;7393;51.446;6.800;2023-06-04T09:55:16;24.00;1.00
14614;DHT22;7393;51.446;6.800;2023-06-04T09:57:47;24.10;1.00
14614;DHT22;7393;51.446;6.800;2023-06-04T10:00:17;24.10;1.00
14614;DHT22;7393;51.446;6.800;2023-06-04T10:02:44;24.20;1.00
14614;DHT22;7393;51.446;6.800;2023-06-04T10:05:13;24.20;1.00
14614;DHT22;7393;51.446;6.800;2023-06-04T10:07:43;24.00;1.00
14614;DHT22;7393;51.446;6.800;2023-06-04T10:10:25;24.10;1.00
14614;DHT22;7393;51.446;6.800;2023-06-04T10:13:01;24.10;1.00
14614;DHT22;7393;51.446;6.800;2023-06-04T10:15:31;24.20;1.00
14614;DHT22;7393;51.446;6.800;2023-06-04T10:18:00;24.30;1.00
14614;DHT22;7393;51.446;6.800;2023-06-04T10:20:30;24.40;1.00
14614;DHT22;7393;51.446;6.800;2023-06-04T10:22:57;24.40;1.00
14614;DHT22;7393;51.446;6.800;2023-06-04T10:25:28;24.50;1.00
14614;DHT22;7393;51.446;6.800;2023-06-04T10:27:56;24.60;1.00
14614;DHT22;7393;51.446;6.800;2023-06-04T10:30:23;24.60;1.00
14614;DHT22;7393;51.446;6.800;2023-06-04T10:32:50;24.70;1.00
14614;DHT22;7393;51.446;6.800;2023-06-04T10:35:17;24.80;1.00
14614;DHT22;7393;51.446;6.800;2023-06-04T10:38:06;24.90;1.00
14614;DHT22;7393;51.446;6.800;2023-06-04T10:40:33;25.00;1.00
14614;DHT22;7393;51.446;6.800;2023-06-04T10:43:05;25.10;1.00
14614;DHT22;7393;51.446;6.800;2023-06-04T10:45:32;25.30;1.00
14614;DHT22;7393;51.446;6.800;2023-06-04T10:48:02;25.40;1.00
14614;DHT22;7393;51.446;6.800;2023-06-04T10:50:29;25.60;1.00
14614;DHT22;7393;51.446;6.800;2023-06-04T10:52:56;25.70;1.00
14614;DHT22;7393;51.446;6.800;2023-06-04T10:55:25;25.70;1.00
14614;DHT22;7393;51.446;6.800;2023-06-04T10:57:55;25.80;1.00
14614;DHT22;7393;51.446;6.800;2023-06-04T11:00:34;26.00;1.00
14614;DHT22;7393;51.446;6.800;2023-06-04T11:03:01;26.20;1.00
14614;DHT22;7393;51.446;6.800;2023-06-04T11:05:34;26.30;1.00
14614;DHT22;7393;51.446;6.800;2023-06-04T11:08:01;26.30;1.00
14614;DHT22;7393;51.446;6.800;2023-06-04T11:10:33;26.40;1.00
14614;DHT22;7393;51.446;6.800;2023-06-04T11:13:02;26.40;1.00
14614;DHT22;7393;51.446;6.800;2023-06-04T11:15:38;26.50;1.00
14614;DHT22;7393;51.446;6.800;2023-06-04T11:18:04;26.60;1.00
14614;DHT22;7393;51.446;6.800;2023-06-04T11:20:31;26.60;1.00
14614;DHT22;7393;51.446;6.800;2023-06-04T11:22:59;26.70;1.00
14614;DHT22;7393;51.446;6.800;2023-06-04T11:25:29;26.80;1.00
14614;DHT22;7393;51.446;6.800;2023-06-04T11:27:58;26.90;1.00
14614;DHT22;7393;51.446;6.800;2023-06-04T11:30:25;26.90;1.00
14614;DHT22;7393;51.446;6.800;2023-06-04T11:33:00;26.70;1.00
14614;DHT22;7393;51.446;6.800;2023-06-04T11:35:27;26.50;1.00
14614;DHT22;7393;51.446;6.800;2023-06-04T11:37:54;26.60;1.00
14614;DHT22;7393;51.446;6.800;2023-06-04T11:40:21;26.10;1.00
14614;DHT22;7393;51.446;6.800;2023-06-04T11:42:48;26.10;1.00
14614;DHT22;7393;51.446;6.800;2023-06-04T11:45:19;26.30;1.00
14614;DHT22;7393;51.446;6.800;2023-06-04T11:47:48;26.60;1.00
14614;DHT22;7393;51.446;6.800;2023-06-04T11:50:15;26.90;1.00
14614;DHT22;7393;51.446;6.800;2023-06-04T11:52:43;27.10;1.00
14614;DHT22;7393;51.446;6.800;2023-06-04T11:55:10;27.30;1.00
14614;DHT22;7393;51.446;6.800;2023-06-04T11:57:38;27.50;1.00
14614;DHT22;7393;51.446;6.800;2023-06-04T12:00:06;27.60;1.00
14614;DHT22;7393;51.446;6.800;2023-06-04T12:02:37;27.70;1.00
14614;DHT22;7393;51.446;6.800;2023-06-04T12:05:12;27.60;1.00
14614;DHT22;7393;51.446;6.800;2023-06-04T12:07:39;27.40;1.00
14614;DHT22;7393;51.446;6.800;2023-06-04T12:10:07;27.30;1.00
14614;DHT22;7393;51.446;6.800;2023-06-04T12:12:34;27.40;1.00
14614;DHT22;7393;51.446;6.800;2023-06-04T12:15:01;27.30;1.00
14614;DHT22;7393;51.446;6.800;2023-06-04T12:17:29;26.70;1.00
14614;DHT22;7393;51.446;6.800;2023-06-04T12:19:57;26.50;1.00
14614;DHT22;7393;51.446;6.800;2023-06-04T12:22:25;26.70;1.00
14614;DHT22;7393;51.446;6.800;2023-06-04T12:24:53;27.00;1.00
14614;DHT22;7393;51.446;6.800;2023-06-04T12:27:21;27.30;1.00
14614;DHT22;7393;51.446;6.800;2023-06-04T12:30:00;27.50;1.00
14614;DHT22;7393;51.446;6.800;2023-06-04T12:32:27;27.80;1.00
14614;DHT22;7393;51.446;6.800;2023-06-04T12:34:54;27.80;1.00
14614;DHT22;7393;51.446;6.800;2023-06-04T12:37:23;27.90;1.00
14614;DHT22;7393;51.446;6.800;2023-06-04T12:39:51;27.90;1.00
14614;DHT22;7393;51.446;6.800;2023-06-04T12:42:19;28.10;1.00
14614;DHT22;7393;51.446;6.800;2023-06-04T12:44:46;28.30;1.00
14614;DHT22;7393;51.446;6.800;2023-06-04T12:47:13;28.40;1.00
14614;DHT22;7393;51.446;6.800;2023-06-04T12:49:40;28.50;1.00
14614;DHT22;7393;51.446;6.800;2023-06-04T12:52:07;28.20;1.00
14614;DHT22;7393;51.446;6.800;2023-06-04T12:54:35;28.10;1.00
14614;DHT22;7393;51.446;6.800;2023-06-04T12:57:02;28.20;1.00
14614;DHT22;7393;51.446;6.800;2023-06-04T12:59:31;28.30;1.00
14614;DHT22;7393;51.446;6.800;2023-06-04T13:01:58;28.00;1.00
14614;DHT22;7393;51.446;6.800;2023-06-04T13:04:24;28.00;1.00
14614;DHT22;7393;51.446;6.800;2023-06-04T13:06:52;28.00;1.00
14614;DHT22;7393;51.446;6.800;2023-06-04T13:09:24;28.10;1.00
14614;DHT22;7393;51.446;6.800;2023-06-04T13:11:52;28.20;1.00
14614;DHT22;7393;51.446;6.800;2023-06-04T13:14:19;28.00;1.00
14614;DHT22;7393;51.446;6.800;2023-06-04T13:16:45;28.00;1.00
14614;DHT22;7393;51.446;6.800;2023-06-04T13:19:14;27.80;1.00
14614;DHT22;7393;51.446;6.800;2023-06-04T13:21:41;28.10;1.00
14614;DHT22;7393;51.446;6.800;2023-06-04T13:24:10;28.40;1.00
14614;DHT22;7393;51.446;6.800;2023-06-04T13:26:37;28.50;1.00
14614;DHT22;7393;51.446;6.800;2023-06-04T13:29:06;28.60;1.00
14614;DHT22;7393;51.446;6.800;2023-06-04T13:31:33;28.90;1.00
14614;DHT22;7393;51.446;6.800;2023-06-04T13:33:59;28.60;1.00
14614;DHT22;7393;51.446;6.800;2023-06-04T13:36:26;28.10;1.00
14614;DHT22;7393;51.446;6.800;2023-06-04T13:38:53;28.00;1.00
14614;DHT22;7393;51.446;6.800;2023-06-04T13:41:20;28.00;1.00
14614;DHT22;7393;51.446;6.800;2023-06-04T13:43:47;28.00;1.00
14614;DHT22;7393;51.446;6.800;2023-06-04T13:46:16;28.20;1.00
14614;DHT22;7393;51.446;6.800;2023-06-04T13:48:42;28.30;1.00
14614;DHT22;7393;51.446;6.800;2023-06-04T13:51:09;28.40;1.00
14614;DHT22;7393;51.446;6.800;2023-06-04T13:53:36;28.40;1.00
14614;DHT22;7393;51.446;6.800;2023-06-04T13:56:03;28.40;1.00
14614;DHT22;7393;51.446;6.800;2023-06-04T13:58:30;28.50;1.00
14614;DHT22;7393;51.446;6.800;2023-06-04T14:00:57;28.70;1.00
14614;DHT22;7393;51.446;6.800;2023-06-04T14:03:25;28.60;1.00
14614;DHT22;7393;51.446;6.800;2023-06-04T14:05:52;28.70;1.00
14614;DHT22;7393;51.446;6.800;2023-06-04T14:08:19;28.50;1.00
14614;DHT22;7393;51.446;6.800;2023-06-04T14:10:45;28.30;1.00
14614;DHT22;7393;51.446;6.800;2023-06-04T14:13:12;28.00;1.00
14614;DHT22;7393;51.446;6.800;2023-06-04T14:15:39;28.10;1.00
14614;DHT22;7393;51.446;6.800;2023-06-04T14:18:06;27.90;1.00
14614;DHT22;7393;51.446;6.800;2023-06-04T14:20:34;28.00;1.00
14614;DHT22;7393;51.446;6.800;2023-06-04T14:23:01;28.10;1.00
14614;DHT22;7393;51.446;6.800;2023-06-04T14:25:28;28.30;1.00
14614;DHT22;7393;51.446;6.800;2023-06-04T14:27:55;28.40;1.00
14614;DHT22;7393;51.446;6.800;2023-06-04T14:30:22;28.30;1.00
14614;DHT22;7393;51.446;6.800;2023-06-04T14:32:49;28.50;1.00
14614;DHT22;7393;51.446;6.800;2023-06-04T14:35:15;28.60;1.00
14614;DHT22;7393;51.446;6.800;2023-06-04T14:37:44;28.60;1.00
14614;DHT22;7393;51.446;6.800;2023-06-04T14:40:11;28.50;1.00
14614;DHT22;7393;51.446;6.800;2023-06-04T14:42:37;28.30;1.00
14614;DHT22;7393;51.446;6.800;2023-06-04T14:45:05;28.30;1.00
14614;DHT22;7393;51.446;6.800;2023-06-04T14:47:32;28.20;1.00
14614;DHT22;7393;51.446;6.800;2023-06-04T14:49:59;28.20;1.00
14614;DHT22;7393;51.446;6.800;2023-06-04T14:52:25;28.00;1.00
14614;DHT22;7393;51.446;6.800;2023-06-04T14:54:54;28.00;1.00
14614;DHT22;7393;51.446;6.800;2023-06-04T14:57:21;27.60;1.00
14614;DHT22;7393;51.446;6.800;2023-06-04T14:59:48;26.90;1.00
14614;DHT22;7393;51.446;6.800;2023-06-04T15:02:15;26.70;1.00
14614;DHT22;7393;51.446;6.800;2023-06-04T15:04:45;26.70;1.00
14614;DHT22;7393;51.446;6.800;2023-06-04T15:07:11;26.80;1.00
14614;DHT22;7393;51.446;6.800;2023-06-04T15:09:38;26.80;1.00
14614;DHT22;7393;51.446;6.800;2023-06-04T15:12:06;26.60;1.00
14614;DHT22;7393;51.446;6.800;2023-06-04T15:14:33;26.30;1.00
14614;DHT22;7393;51.446;6.800;2023-06-04T15:17:00;26.30;1.00
14614;DHT22;7393;51.446;6.800;2023-06-04T15:19:27;26.40;1.00
14614;DHT22;7393;51.446;6.800;2023-06-04T15:21:53;26.30;1.00
14614;DHT22;7393;51.446;6.800;2023-06-04T15:24:20;26.30;1.00
14614;DHT22;7393;51.446;6.800;2023-06-04T15:26:48;26.30;1.00
14614;DHT22;7393;51.446;6.800;2023-06-04T15:29:16;26.30;1.00
14614;DHT22;7393;51.446;6.800;2023-06-04T15:31:43;26.20;1.00
14614;DHT22;7393;51.446;6.800;2023-06-04T15:34:11;25.90;1.00
14614;DHT22;7393;51.446;6.800;2023-06-04T15:36:38;25.70;1.00
14614;DHT22;7393;51.446;6.800;2023-06-04T15:39:05;25.70;1.00
14614;DHT22;7393;51.446;6.800;2023-06-04T15:41:32;25.60;1.00
14614;DHT22;7393;51.446;6.800;2023-06-04T15:43:58;25.50;1.00
14614;DHT22;7393;51.446;6.800;2023-06-04T15:46:27;25.50;1.00
14614;DHT22;7393;51.446;6.800;2023-06-04T15:48:53;25.50;1.00
14614;DHT22;7393;51.446;6.800;2023-06-04T15:51:20;25.50;1.00
14614;DHT22;7393;51.446;6.800;2023-06-04T15:53:47;25.50;1.00
14614;DHT22;7393;51.446;6.800;2023-06-04T15:56:14;25.50;1.00
14614;DHT22;7393;51.446;6.800;2023-06-04T15:58:41;25.40;1.00
14614;DHT22;7393;51.446;6.800;2023-06-04T16:01:08;25.40;1.00
14614;DHT22;7393;51.446;6.800;2023-06-04T16:03:36;25.40;1.00
14614;DHT22;7393;51.446;6.800;2023-06-04T16:06:03;25.30;1.00